Time;durP1;ratioP1;P1;durP2;ratioP2;P2;SDS_P1;SDS_P2;PMS_P1;PMS_P2;Temp;Humidity;BMP_temperature;BMP_pressure;BME280_temperature;BME280_humidity;BME280_pressure;Samples;Min_cycle;Max_cycle;Signal;HPM_P1;HPM_P2
2021/04/23 00:01:35;;;;;;;;;;;;;;;21.09;41.05;101030.47;5095404;28;1002;-62
2021/04/23 00:04:02;;;;;;;;;;;;;;;21.14;40.92;101020.16;5095988;28;795;-62
2021/04/23 00:06:31;;;;;;;;;;;;;;;21.00;41.11;101022.03;5095981;28;861;-62
2021/04/23 00:09:01;;;;;;;;;;;;;;;20.97;41.51;101019.84;5095975;28;790;-62
2021/04/23 00:11:29;;;;;;;;;;;;;;;21.11;40.85;101020.75;5093620;28;1146;-61
2021/04/23 00:13:55;;;;;;;;;;;;;;;21.25;40.62;101011.69;5075401;28;1210;-61
2021/04/23 00:16:20;;;;;;;;;;;;;;;21.11;40.87;101018.00;5078772;28;1910;-61
2021/04/23 00:18:46;;;;;;;;;;;;;;;21.26;40.77;101029.94;5116312;28;839;-62
2021/04/23 00:21:12;;;;;;;;;;;;;;;20.98;41.09;101014.00;5116179;28;865;-62
2021/04/23 00:23:38;;;;;;;;;;;;;;;20.99;41.20;101009.31;5098595;28;755;-61
2021/04/23 00:26:04;;;;;;;;;;;;;;;21.16;40.70;101017.09;5116304;28;822;-62
2021/04/23 00:28:32;;;;;;;;;;;;;;;21.00;41.24;101013.75;5116317;28;782;-62
2021/04/23 00:30:57;;;;;;;;;;;;;;;20.94;41.26;101007.44;5098451;28;774;-62
2021/04/23 00:33:24;;;;;;;;;;;;;;;20.76;41.64;101017.38;5115775;28;953;-62
2021/04/23 00:35:49;;;;;;;;;;;;;;;21.08;41.18;101013.03;5115843;28;1909;-62
2021/04/23 00:38:16;;;;;;;;;;;;;;;20.90;41.49;101008.34;5099143;28;774;-62
2021/04/23 00:40:48;;;;;;;;;;;;;;;21.00;41.37;101016.50;5101228;28;816;-62
2021/04/23 00:43:13;;;;;;;;;;;;;;;21.29;40.53;101007.22;5119476;28;790;-61
2021/04/23 00:45:39;;;;;;;;;;;;;;;21.25;40.47;101011.69;5117703;28;1545;-61
2021/04/23 00:48:05;;;;;;;;;;;;;;;21.28;40.72;101011.09;5098654;28;958;-62
2021/04/23 00:50:32;;;;;;;;;;;;;;;21.16;40.63;101000.50;5099588;28;743;-62
2021/04/23 00:52:58;;;;;;;;;;;;;;;21.33;40.64;101002.72;5099112;28;787;-61
2021/04/23 00:55:24;;;;;;;;;;;;;;;21.11;40.87;101003.34;5098827;28;1977;-62
2021/04/23 00:57:49;;;;;;;;;;;;;;;21.14;41.07;101005.50;5080977;28;803;-62
2021/04/23 01:00:15;;;;;;;;;;;;;;;21.28;40.63;100994.50;5099264;28;756;-62
2021/04/23 01:02:41;;;;;;;;;;;;;;;21.20;40.85;100993.25;5098196;28;966;-62
2021/04/23 01:05:06;;;;;;;;;;;;;;;20.99;41.36;100989.97;5098957;28;798;-62
2021/04/23 01:07:32;;;;;;;;;;;;;;;20.97;41.17;100993.03;5098883;28;525;-62
2021/04/23 01:09:57;;;;;;;;;;;;;;;21.08;41.22;100995.66;5098654;28;779;-61
2021/04/23 01:12:23;;;;;;;;;;;;;;;20.85;41.58;100995.41;5070074;28;1139;-61
2021/04/23 01:14:48;;;;;;;;;;;;;;;21.03;41.06;100994.59;5078567;28;1912;-61
2021/04/23 01:17:14;;;;;;;;;;;;;;;21.02;40.91;100992.94;5069338;28;967;-61
2021/04/23 01:19:39;;;;;;;;;;;;;;;20.92;41.50;100990.34;5098621;28;807;-61
2021/04/23 01:22:04;;;;;;;;;;;;;;;21.00;41.08;100989.66;5098516;28;851;-61
2021/04/23 01:24:30;;;;;;;;;;;;;;;21.18;40.83;100990.78;5098620;28;775;-61
2021/04/23 01:26:56;;;;;;;;;;;;;;;21.03;41.13;100983.53;5080083;28;827;-61
2021/04/23 01:29:22;;;;;;;;;;;;;;;20.80;41.60;100987.19;5098372;28;807;-61
2021/04/23 01:31:48;;;;;;;;;;;;;;;20.75;41.85;100982.56;5097787;28;962;-61
2021/04/23 01:34:19;;;;;;;;;;;;;;;20.72;41.65;100983.16;5098209;28;1913;-61
2021/04/23 01:36:45;;;;;;;;;;;;;;;20.99;41.25;100984.44;5098373;28;779;-61
2021/04/23 01:39:12;;;;;;;;;;;;;;;21.05;41.15;100974.94;5098288;28;866;-61
2021/04/23 01:41:37;;;;;;;;;;;;;;;20.94;41.21;100987.28;5098176;28;755;-61
2021/04/23 01:44:03;;;;;;;;;;;;;;;20.83;41.67;100981.91;5097792;28;850;-61
2021/04/23 01:46:28;;;;;;;;;;;;;;;20.99;41.04;100982.50;5097551;28;1605;-61
2021/04/23 01:48:54;;;;;;;;;;;;;;;20.95;41.35;100991.69;5097978;28;877;-61
2021/04/23 01:51:19;;;;;;;;;;;;;;;20.83;41.58;100990.19;5080345;28;788;-61
2021/04/23 01:53:44;;;;;;;;;;;;;;;21.07;41.03;100989.31;5098168;28;842;-61
2021/04/23 01:56:10;;;;;;;;;;;;;;;20.90;41.42;100988.97;5097749;28;1906;-61
2021/04/23 01:58:36;;;;;;;;;;;;;;;21.11;40.92;100990.34;5097733;28;868;-61
2021/04/23 02:01:01;;;;;;;;;;;;;;;21.01;41.20;100991.31;5098115;28;779;-62
2021/04/23 02:03:27;;;;;;;;;;;;;;;21.02;41.07;100992.13;5097365;28;998;-62
2021/04/23 02:05:53;;;;;;;;;;;;;;;21.15;40.98;100994.16;5097611;28;815;-62
2021/04/23 02:08:19;;;;;;;;;;;;;;;21.20;40.89;100988.53;5079360;28;939;-62
2021/04/23 02:10:46;;;;;;;;;;;;;;;21.15;40.82;100987.78;5096626;28;956;-62
2021/04/23 02:13:11;;;;;;;;;;;;;;;21.14;40.88;100983.38;5062550;28;1321;-62
2021/04/23 02:15:37;;;;;;;;;;;;;;;20.96;41.33;100982.28;5077193;28;1969;-62
2021/04/23 02:18:02;;;;;;;;;;;;;;;20.77;41.57;100985.81;5109003;28;1010;-61
2021/04/23 02:20:29;;;;;;;;;;;;;;;20.85;41.63;100979.63;5117844;28;743;-61
2021/04/23 02:22:55;;;;;;;;;;;;;;;21.05;41.05;100980.47;5099654;28;843;-61
2021/04/23 02:25:21;;;;;;;;;;;;;;;21.02;41.16;100975.53;5099442;28;863;-61
2021/04/23 02:27:47;;;;;;;;;;;;;;;21.11;40.86;100978.44;5118167;28;806;-61
2021/04/23 02:30:13;;;;;;;;;;;;;;;21.17;40.89;100983.59;5099152;28;953;-61
2021/04/23 02:32:39;;;;;;;;;;;;;;;20.99;41.12;100981.69;5116769;28;950;-61
2021/04/23 02:35:05;;;;;;;;;;;;;;;21.06;41.08;100976.59;5117523;28;1905;-61
2021/04/23 02:37:30;;;;;;;;;;;;;;;21.10;40.99;100977.63;5098966;28;816;-62
2021/04/23 02:39:56;;;;;;;;;;;;;;;21.20;40.88;100987.72;5117239;28;826;-62
2021/04/23 02:42:22;;;;;;;;;;;;;;;21.17;40.75;100983.59;5081900;28;880;-62
2021/04/23 02:44:47;;;;;;;;;;;;;;;21.14;40.81;100994.44;5117670;28;798;-62
2021/04/23 02:47:12;;;;;;;;;;;;;;;20.99;41.36;100984.44;5101505;28;1621;-62
2021/04/23 02:49:38;;;;;;;;;;;;;;;20.97;41.38;100983.91;5096949;28;802;-62
2021/04/23 02:52:04;;;;;;;;;;;;;;;21.08;41.19;100984.59;5096941;28;779;-61
2021/04/23 02:54:29;;;;;;;;;;;;;;;20.94;41.26;100979.78;5096508;28;1917;-62
2021/04/23 02:56:54;;;;;;;;;;;;;;;21.12;41.07;100985.63;5096875;28;731;-61
2021/04/23 02:59:20;;;;;;;;;;;;;;;21.12;40.91;100985.63;5096787;28;799;-61
2021/04/23 03:01:46;;;;;;;;;;;;;;;21.10;40.79;100988.69;5077286;28;959;-65
2021/04/23 03:04:12;;;;;;;;;;;;;;;20.98;41.41;100977.25;5096937;28;791;-60
2021/04/23 03:06:37;;;;;;;;;;;;;;;21.04;41.45;100981.59;5096790;28;747;-61
2021/04/23 03:09:04;;;;;;;;;;;;;;;21.08;41.28;100982.63;5096399;28;831;-60
2021/04/23 03:11:29;;;;;;;;;;;;;;;21.12;41.09;100991.16;5094227;28;1135;-60
2021/04/23 03:13:55;;;;;;;;;;;;;;;20.96;41.59;100982.28;5076344;28;1114;-60
2021/04/23 03:16:22;;;;;;;;;;;;;;;21.00;41.46;100989.66;5079594;28;1981;-61
2021/04/23 03:18:47;;;;;;;;;;;;;;;21.16;40.84;100993.00;5116961;28;862;-61
2021/04/23 03:21:13;;;;;;;;;;;;;;;21.02;41.46;100992.13;5098813;28;1102;-61
2021/04/23 03:23:38;;;;;;;;;;;;;;;20.96;41.45;100999.69;5116662;28;779;-60
2021/04/23 03:26:04;;;;;;;;;;;;;;;21.23;40.73;101005.66;5116849;28;823;-61
2021/04/23 03:28:30;;;;;;;;;;;;;;;21.18;41.02;101009.31;5117014;28;822;-61
2021/04/23 03:30:55;;;;;;;;;;;;;;;21.06;41.08;101012.53;5116929;28;772;-62
2021/04/23 03:33:21;;;;;;;;;;;;;;;21.23;40.74;101002.91;5116393;28;1008;-62
2021/04/23 03:35:50;;;;;;;;;;;;;;;21.10;40.98;101005.28;5116545;28;1943;-58
2021/04/23 03:38:16;;;;;;;;;;;;;;;21.24;40.88;101012.81;5116637;28;854;-60
2021/04/23 03:40:43;;;;;;;;;;;;;;;21.26;40.61;101011.41;5116721;28;794;-60
2021/04/23 03:43:09;;;;;;;;;;;;;;;21.24;40.66;101007.28;5116360;28;775;-60
2021/04/23 03:45:35;;;;;;;;;;;;;;;21.22;40.75;101004.81;5096644;28;1613;-60
2021/04/23 03:48:01;;;;;;;;;;;;;;;21.30;40.53;101011.63;5096018;28;970;-61
2021/04/23 03:50:29;;;;;;;;;;;;;;;21.20;40.67;100998.78;5096034;28;775;-61
2021/04/23 03:52:55;;;;;;;;;;;;;;;21.07;41.07;100999.53;5096170;28;755;-61
2021/04/23 03:55:28;;;;;;;;;;;;;;;21.05;41.07;100997.06;5096191;28;1905;-61
2021/04/23 03:57:53;;;;;;;;;;;;;;;21.03;41.15;100994.59;5095686;28;799;-60
2021/04/23 04:00:22;;;;;;;;;;;;;;;21.14;40.92;100995.28;5096426;28;747;-60
2021/04/23 04:02:48;;;;;;;;;;;;;;;21.17;40.78;100997.44;5095529;28;1025;-60
2021/04/23 04:05:13;;;;;;;;;;;;;;;21.43;40.24;100998.97;5095996;28;759;-58
2021/04/23 04:07:39;;;;;;;;;;;;;;;21.23;40.54;101003.72;5096087;28;766;-63
2021/04/23 04:10:05;;;;;;;;;;;;;;;21.33;40.52;101008.25;5095772;28;490;-59
2021/04/23 04:12:30;;;;;;;;;;;;;;;21.35;40.38;101003.28;5084569;28;1182;-61
2021/04/23 04:14:56;;;;;;;;;;;;;;;21.12;41.01;101003.03;5078779;28;1985;-62
2021/04/23 04:17:21;;;;;;;;;;;;;;;21.19;40.56;101000.72;5071922;28;888;-62
2021/04/23 04:19:47;;;;;;;;;;;;;;;21.22;40.67;101010.34;5099553;28;885;-62
2021/04/23 04:22:12;;;;;;;;;;;;;;;21.24;40.65;101007.28;5099454;28;794;-62
2021/04/23 04:24:37;;;;;;;;;;;;;;;21.40;40.15;100997.63;5099277;28;766;-63
2021/04/23 04:27:03;;;;;;;;;;;;;;;21.34;40.36;100998.84;5099656;28;775;-62
2021/04/23 04:29:28;;;;;;;;;;;;;;;21.19;40.59;101003.47;5081488;28;1123;-57
2021/04/23 04:31:54;;;;;;;;;;;;;;;21.31;40.57;101007.75;5098875;28;1005;-59
2021/04/23 04:34:19;;;;;;;;;;;;;;;21.35;40.50;101006.03;5099476;28;806;-62
2021/04/23 04:36:45;;;;;;;;;;;;;;;21.40;40.01;101003.16;5099415;28;2052;-60
2021/04/23 04:39:10;;;;;;;;;;;;;;;21.51;40.04;101006.59;5095925;28;974;-61
2021/04/23 04:41:36;;;;;;;;;;;;;;;21.61;39.96;101008.41;5098892;28;875;-60
2021/04/23 04:44:01;;;;;;;;;;;;;;;21.57;40.05;101004.59;5081622;28;789;-61
2021/04/23 04:46:27;;;;;;;;;;;;;;;21.61;39.76;101011.19;5097942;28;1324;-61
2021/04/23 04:48:52;;;;;;;;;;;;;;;21.36;40.40;101010.41;5099013;28;837;-60
2021/04/23 04:51:18;;;;;;;;;;;;;;;21.11;40.85;101009.72;5098719;28;891;-61
2021/04/23 04:53:43;;;;;;;;;;;;;;;21.19;40.84;101014.53;5098959;28;735;-61
2021/04/23 04:56:09;;;;;;;;;;;;;;;21.52;40.13;101003.56;5099044;28;1973;-61
2021/04/23 04:58:35;;;;;;;;;;;;;;;21.28;40.60;101000.88;5098368;28;755;-60
2021/04/23 05:01:01;;;;;;;;;;;;;;;21.01;41.00;100991.31;5098891;28;791;-60
2021/04/23 05:03:26;;;;;;;;;;;;;;;21.10;41.09;100985.13;5097955;28;951;-61
2021/04/23 05:05:52;;;;;;;;;;;;;;;21.14;40.90;100983.38;5080204;28;1145;-61
2021/04/23 05:08:17;;;;;;;;;;;;;;;20.89;41.31;100993.69;5098328;28;759;-61
2021/04/23 05:10:43;;;;;;;;;;;;;;;21.20;40.87;100990.50;5098792;28;755;-61
2021/04/23 05:13:08;;;;;;;;;;;;;;;21.31;40.53;100993.94;5081809;28;1257;-60
2021/04/23 05:15:34;;;;;;;;;;;;;;;21.10;40.85;100988.69;5060784;28;2018;-61
2021/04/23 05:17:59;;;;;;;;;;;;;;;20.92;41.31;100990.34;5109159;28;1080;-61
2021/04/23 05:20:25;;;;;;;;;;;;;;;21.24;40.72;100996.22;5118788;28;863;-60
2021/04/23 05:22:50;;;;;;;;;;;;;;;21.32;40.44;100992.78;5100361;28;896;-61
2021/04/23 05:25:16;;;;;;;;;;;;;;;21.12;40.89;100993.94;5099828;28;855;-61
2021/04/23 05:27:42;;;;;;;;;;;;;;;21.01;41.11;100990.47;5118735;28;1025;-59
2021/04/23 05:30:08;;;;;;;;;;;;;;;21.09;41.00;100984.28;5119226;28;775;-60
2021/04/23 05:32:34;;;;;;;;;;;;;;;21.29;40.75;100988.66;5118265;28;942;-61
2021/04/23 05:34:59;;;;;;;;;;;;;;;21.39;40.30;100981.34;5118444;28;1917;-57
2021/04/23 05:37:25;;;;;;;;;;;;;;;21.58;39.99;100984.13;5118646;28;802;-61
2021/04/23 05:39:50;;;;;;;;;;;;;;;21.58;39.87;100981.34;5099936;28;950;-57
2021/04/23 05:42:16;;;;;;;;;;;;;;;21.58;40.08;100984.94;5118329;28;854;-61
2021/04/23 05:44:41;;;;;;;;;;;;;;;21.56;39.99;100986.34;5118534;28;767;-59
2021/04/23 05:47:07;;;;;;;;;;;;;;;21.54;40.05;100983.88;5076408;28;1562;-61
2021/04/23 05:49:33;;;;;;;;;;;;;;;21.66;40.02;100994.50;5118700;28;764;-61
2021/04/23 05:51:58;;;;;;;;;;;;;;;21.67;39.81;100996.97;5099906;28;876;-61
2021/04/23 05:54:24;;;;;;;;;;;;;;;21.65;39.89;100995.63;5118018;28;1979;-62
2021/04/23 05:56:49;;;;;;;;;;;;;;;21.69;39.78;100993.88;5096280;28;942;-60
2021/04/23 05:59:15;;;;;;;;;;;;;;;21.82;39.45;100992.28;5097445;28;832;-60
2021/04/23 06:01:40;;;;;;;;;;;;;;;21.55;40.21;100993.84;5101658;28;871;-62
2021/04/23 06:04:06;;;;;;;;;;;;;;;21.20;40.87;100982.19;5118403;28;777;-59
2021/04/23 06:06:31;;;;;;;;;;;;;;;21.15;40.98;100991.41;5099419;28;890;-56
2021/04/23 06:08:57;;;;;;;;;;;;;;;21.19;41.10;100978.59;5097202;28;794;-60
2021/04/23 06:11:23;;;;;;;;;;;;;;;21.40;40.45;100986.56;5097566;28;1119;-61
2021/04/23 06:13:49;;;;;;;;;;;;;;;21.34;40.79;100979.50;5097323;28;1135;-62
2021/04/23 06:16:14;;;;;;;;;;;;;;;21.15;40.76;100977.56;5097138;28;1910;-62
2021/04/23 06:18:41;;;;;;;;;;;;;;;20.71;42.06;100980.69;5097325;28;994;-63
2021/04/23 06:21:06;;;;;;;;;;;;;;;21.03;41.42;100988.25;5097296;28;837;-63
2021/04/23 06:23:32;;;;;;;;;;;;;;;21.40;40.44;100986.56;5096931;28;870;-60
2021/04/23 06:25:57;;;;;;;;;;;;;;;21.32;40.71;100976.19;5097683;28;843;-61
2021/04/23 06:28:23;;;;;;;;;;;;;;;21.12;41.15;100980.09;5096872;28;952;-61
2021/04/23 06:30:48;;;;;;;;;;;;;;;21.09;41.07;100989.81;5097236;28;858;-61
2021/04/23 06:33:17;;;;;;;;;;;;;;;21.08;41.32;100985.38;5096218;28;954;-61
2021/04/23 06:35:43;;;;;;;;;;;;;;;21.35;40.60;100986.66;5096321;28;1976;-63
2021/04/23 06:38:08;;;;;;;;;;;;;;;21.52;40.34;100991.69;5097481;28;700;-61
2021/04/23 06:40:35;;;;;;;;;;;;;;;21.57;40.05;100993.53;5097316;28;874;-62
2021/04/23 06:43:00;;;;;;;;;;;;;;;21.62;39.84;100993.44;5096719;28;823;-63
2021/04/23 06:45:26;;;;;;;;;;;;;;;21.61;39.98;101002.88;5097454;28;1566;-62
2021/04/23 06:47:51;;;;;;;;;;;;;;;21.72;39.90;101004.34;5096646;28;974;-61
2021/04/23 06:50:18;;;;;;;;;;;;;;;21.62;40.23;100999.00;5096668;28;830;-63
2021/04/23 06:52:43;;;;;;;;;;;;;;;21.67;40.01;100996.13;5079010;28;1422;-63
2021/04/23 06:55:09;;;;;;;;;;;;;;;21.81;39.73;100985.94;5096724;28;1973;-63
2021/04/23 06:57:35;;;;;;;;;;;;;;;21.89;39.58;100981.63;5096871;28;783;-63
2021/04/23 07:00:01;;;;;;;;;;;;;;;21.92;39.49;100992.06;5096796;28;763;-63
2021/04/23 07:02:26;;;;;;;;;;;;;;;21.49;40.49;100998.59;5096114;28;1006;-64
2021/04/23 07:04:52;;;;;;;;;;;;;;;21.36;40.64;100996.59;5096597;28;914;-64
2021/04/23 07:07:17;;;;;;;;;;;;;;;21.45;40.69;100997.56;5096763;28;618;-63
2021/04/23 07:09:43;;;;;;;;;;;;;;;21.66;40.25;101000.03;5078535;28;823;-63
2021/04/23 07:12:08;;;;;;;;;;;;;;;21.97;39.60;100996.72;5088395;28;1258;-63
2021/04/23 07:14:34;;;;;;;;;;;;;;;21.88;39.67;101013.19;5076216;28;1922;-63
2021/04/23 07:17:00;;;;;;;;;;;;;;;21.87;39.67;101015.16;5065126;28;1083;-63
2021/04/23 07:19:25;;;;;;;;;;;;;;;21.82;39.73;101017.19;5096457;28;910;-62
2021/04/23 07:21:51;;;;;;;;;;;;;;;22.04;39.36;101022.88;5095966;28;870;-63
2021/04/23 07:24:17;;;;;;;;;;;;;;;22.00;39.49;101035.69;5095438;28;1079;-63
2021/04/23 07:26:42;;;;;;;;;;;;;;;21.64;40.28;101035.47;5096466;28;783;-63
2021/04/23 07:29:08;;;;;;;;;;;;;;;21.43;40.82;101019.16;5096568;28;766;-63
2021/04/23 07:31:33;;;;;;;;;;;;;;;21.24;41.00;101026.63;5096332;28;966;-64
2021/04/23 07:34:00;;;;;;;;;;;;;;;21.26;40.79;101030.75;5096308;28;823;-62
2021/04/23 07:36:26;;;;;;;;;;;;;;;21.70;40.04;101035.09;5095892;28;1913;-63
2021/04/23 07:38:51;;;;;;;;;;;;;;;21.81;39.81;101030.22;5096754;28;909;-63
2021/04/23 07:41:17;;;;;;;;;;;;;;;21.77;39.76;101045.78;5096579;28;755;-58
2021/04/23 07:43:43;;;;;;;;;;;;;;;21.99;39.63;101030.44;5095928;28;756;-62
2021/04/23 07:46:09;;;;;;;;;;;;;;;21.95;39.60;101030.25;5095825;28;1594;-62
2021/04/23 07:48:34;;;;;;;;;;;;;;;22.01;39.37;101025.44;5098810;28;954;-62
2021/04/23 07:51:00;;;;;;;;;;;;;;;22.11;39.18;101022.47;5100064;28;802;-63
2021/04/23 07:53:25;;;;;;;;;;;;;;;21.68;39.86;101019.91;5099117;28;832;-62
2021/04/23 07:55:51;;;;;;;;;;;;;;;21.45;40.36;101018.88;5099883;28;1893;-61
2021/04/23 07:58:16;;;;;;;;;;;;;;;21.25;41.20;101018.06;5099553;28;828;-50
2021/04/23 08:00:42;;;;;;;;;;;;;;;21.58;40.23;101017.31;5100188;28;823;-62
2021/04/23 08:03:07;;;;;;;;;;;;;;;21.74;40.07;101024.25;5099810;28;958;-63
2021/04/23 08:05:33;;;;;;;;;;;;;;;22.00;39.21;101032.09;5099703;28;767;-59
2021/04/23 08:07:59;;;;;;;;;;;;;;;21.83;39.65;101029.91;5099552;28;1218;-57
2021/04/23 08:10:24;;;;;;;;;;;;;;;22.02;39.33;101025.13;5081353;28;883;-60
2021/04/23 08:12:51;;;;;;;;;;;;;;;22.17;39.17;101028.75;5091523;28;1178;-60
2021/04/23 08:15:17;;;;;;;;;;;;;;;21.73;39.96;101033.66;5079968;28;1902;-63
2021/04/23 08:17:43;;;;;;;;;;;;;;;21.67;39.94;101035.69;5113092;28;1013;-61
2021/04/23 08:20:09;;;;;;;;;;;;;;;21.51;40.25;101026.78;5119571;28;793;-61
2021/04/23 08:22:35;;;;;;;;;;;;;;;21.52;40.60;101034.00;5120415;28;774;-60
2021/04/23 08:25:00;;;;;;;;;;;;;;;21.84;39.84;101035.13;5120128;28;798;-60
2021/04/23 08:27:26;;;;;;;;;;;;;;;22.18;38.94;101035.94;5120264;28;774;-61
2021/04/23 08:29:53;;;;;;;;;;;;;;;22.08;39.17;101027.78;5120030;28;1161;-60
2021/04/23 08:32:19;;;;;;;;;;;;;;;21.82;39.90;101026.28;5119336;28;1013;-61
2021/04/23 08:34:44;;;;;;;;;;;;;;;21.65;40.02;101028.81;5119777;28;1976;-60
2021/04/23 08:37:10;;;;;;;;;;;;;;;21.40;40.85;101025.28;5119528;28;847;-61
2021/04/23 08:39:36;;;;;;;;;;;;;;;21.90;39.64;101027.56;5119643;28;819;-64
2021/04/23 08:42:01;;;;;;;;;;;;;;;22.16;39.13;101027.94;5119697;28;846;-61
2021/04/23 08:44:27;;;;;;;;;;;;;;;21.94;39.69;101022.25;5120054;28;779;-62
2021/04/23 08:46:52;;;;;;;;;;;;;;;21.93;39.55;101031.66;5089203;28;1641;-62
2021/04/23 08:49:18;;;;;;;;;;;;;;;21.57;40.36;101032.28;5080991;28;1082;-62
2021/04/23 08:51:44;;;;;;;;;;;;;;;21.43;40.70;101034.94;5099090;28;510;-62
2021/04/23 08:54:09;;;;;;;;;;;;;;;21.88;39.56;101036.16;5099087;28;803;-63
2021/04/23 08:56:35;;;;;;;;;;;;;;;22.19;38.95;101037.56;5080841;28;1914;-63
2021/04/23 08:59:00;;;;;;;;;;;;;;;21.90;39.63;101037.81;5078690;28;867;-61
2021/04/23 09:01:27;;;;;;;;;;;;;;;21.86;39.89;101043.13;5098735;28;942;-61
2021/04/23 09:03:52;;;;;;;;;;;;;;;21.33;41.07;101038.69;5098899;28;759;-61
2021/04/23 09:06:20;;;;;;;;;;;;;;;21.67;40.26;101040.41;5098824;28;870;-61
2021/04/23 09:08:52;;;;;;;;;;;;;;;22.09;39.40;101041.34;5098741;28;794;-63
2021/04/23 09:11:18;;;;;;;;;;;;;;;22.24;39.12;101036.66;5098453;28;1122;-51
2021/04/23 09:13:56;;;;;;;;;;;;;;;21.90;39.64;101033.09;5078252;28;1130;-63
2021/04/23 09:16:23;;;;;;;;;;;;;;;21.81;39.81;101032.13;5082199;28;1909;-62
2021/04/23 09:18:48;;;;;;;;;;;;;;;21.62;40.30;101030.25;5119133;28;735;-62
2021/04/23 09:21:16;;;;;;;;;;;;;;;21.33;40.98;101024.84;5118919;28;763;-62
2021/04/23 09:23:49;;;;;;;;;;;;;;;21.77;40.08;101017.25;5118842;28;822;-62
2021/04/23 09:26:37;;;;;;;;;;;;;;;22.10;39.27;101012.50;5119233;28;799;-62
2021/04/23 09:29:03;;;;;;;;;;;;;;;21.83;39.74;101019.66;5118713;28;824;-62
2021/04/23 09:31:32;;;;;;;;;;;;;;;21.83;39.72;101016.88;5116781;28;978;-63
2021/04/23 09:33:57;;;;;;;;;;;;;;;21.39;40.62;101023.66;5118831;28;826;-63
2021/04/23 09:36:40;;;;;;;;;;;;;;;21.33;41.03;101019.31;5118420;28;1969;-63
2021/04/23 09:39:20;;;;;;;;;;;;;;;21.83;39.96;101016.06;5100661;28;1279;-64
2021/04/23 09:42:08;;;;;;;;;;;;;;;22.05;39.34;101018.16;5118333;28;1087;-63
2021/04/23 09:44:35;;;;;;;;;;;;;;;21.84;39.89;101013.00;5108724;28;827;-61
2021/04/23 09:47:14;;;;;;;;;;;;;;;21.66;40.27;101022.16;5092389;28;2424;-61
2021/04/23 09:49:40;;;;;;;;;;;;;;;21.33;41.01;101002.72;5095484;28;2423;-62
2021/04/23 09:52:07;;;;;;;;;;;;;;;21.83;39.72;101002.22;5070183;28;2373;-62
2021/04/23 09:54:33;;;;;;;;;;;;;;;22.21;39.10;101007.63;5075250;28;2477;-62
2021/04/23 09:56:59;;;;;;;;;;;;;;;22.00;39.43;101013.53;5072425;28;2478;-63
2021/04/23 09:59:28;;;;;;;;;;;;;;;22.04;39.55;101010.97;5091649;28;2303;-57
2021/04/23 10:02:00;;;;;;;;;;;;;;;21.72;39.97;101015.41;5092648;28;2729;-58
2021/04/23 10:04:26;;;;;;;;;;;;;;;21.60;40.34;101018.66;5097088;28;1771;-50
2021/04/23 10:07:27;;;;;;;;;;;;;;;22.01;39.42;101017.94;5094105;28;2648;-53
2021/04/23 10:10:00;;;;;;;;;;;;;;;22.01;39.58;101022.66;5052624;28;2334;-62
2021/04/23 10:12:28;;;;;;;;;;;;;;;21.74;40.27;101028.94;5090226;28;1053;-56
2021/04/23 10:15:04;;;;;;;;;;;;;;;21.61;40.36;101034.13;5097140;28;1977;-57
2021/04/23 10:17:30;;;;;;;;;;;;;;;21.38;41.00;101046.91;5108225;28;1010;-56
2021/04/23 10:19:55;;;;;;;;;;;;;;;21.84;39.81;101046.22;5117404;28;759;-61
2021/04/23 10:22:21;;;;;;;;;;;;;;;22.14;39.11;101037.66;5117657;28;835;-57
2021/04/23 10:24:47;;;;;;;;;;;;;;;21.95;39.47;101037.72;5117450;28;528;-51
2021/04/23 10:27:13;;;;;;;;;;;;;;;21.92;39.56;101024.47;5117596;28;949;-56
2021/04/23 10:29:38;;;;;;;;;;;;;;;21.40;40.64;101036.38;5099384;28;790;-60
2021/04/23 10:32:06;;;;;;;;;;;;;;;21.60;40.43;101043.56;5098486;28;962;-62
2021/04/23 10:34:32;;;;;;;;;;;;;;;22.10;39.43;101031.09;5117432;28;807;-61
2021/04/23 10:36:58;;;;;;;;;;;;;;;22.31;38.72;101034.28;5117772;28;1909;-61
2021/04/23 10:39:23;;;;;;;;;;;;;;;22.33;38.61;101038.44;5117413;28;938;-62
2021/04/23 10:41:49;;;;;;;;;;;;;;;22.13;39.18;101036.84;5099879;28;743;-55
2021/04/23 10:44:17;;;;;;;;;;;;;;;22.15;38.99;101034.59;5117378;28;1062;-59
2021/04/23 10:46:53;;;;;;;;;;;;;;;21.49;40.59;101042.88;5105858;28;1561;-61
2021/04/23 10:49:18;;;;;;;;;;;;;;;21.74;40.13;101040.84;5079069;28;1086;-62
2021/04/23 10:51:44;;;;;;;;;;;;;;;22.00;39.50;101032.09;5096695;28;788;-58
2021/04/23 10:54:19;;;;;;;;;;;;;;;22.16;39.06;101030.69;5078517;28;767;-55
2021/04/23 10:56:48;;;;;;;;;;;;;;;21.84;39.76;101029.59;5097124;28;1910;-58
2021/04/23 10:59:20;;;;;;;;;;;;;;;21.72;40.23;101036.75;5096584;28;823;-55
2021/04/23 11:01:46;;;;;;;;;;;;;;;21.23;41.28;101036.91;5096060;28;981;-55
2021/04/23 11:04:21;;;;;;;;;;;;;;;21.60;40.62;101034.44;5078199;28;907;-56
2021/04/23 11:06:53;;;;;;;;;;;;;;;21.96;39.65;101031.88;5096236;28;776;-59
2021/04/23 11:09:19;;;;;;;;;;;;;;;22.13;39.27;101027.69;5096728;28;751;-60
2021/04/23 11:12:05;;;;;;;;;;;;;;;22.07;39.41;101021.44;5073156;28;1194;-59
2021/04/23 11:14:30;;;;;;;;;;;;;;;21.70;40.22;101029.56;5075889;28;1070;-60
2021/04/23 11:17:16;;;;;;;;;;;;;;;21.65;40.45;101026.06;5089102;28;1981;-64
2021/04/23 11:19:42;;;;;;;;;;;;;;;21.57;40.42;101021.19;5102485;28;1678;-63
2021/04/23 11:22:09;;;;;;;;;;;;;;;21.88;39.66;101013.19;5116275;28;759;-64
2021/04/23 11:24:34;;;;;;;;;;;;;;;22.17;39.19;101010.16;5116806;28;799;-65
2021/04/23 11:27:09;;;;;;;;;;;;;;;22.02;39.75;101016.00;5116738;28;802;-64
2021/04/23 11:29:40;;;;;;;;;;;;;;;21.94;39.79;101013.94;5116653;28;786;-65
2021/04/23 11:32:13;;;;;;;;;;;;;;;21.68;40.15;101022.69;5116355;28;945;-64
2021/04/23 11:34:57;;;;;;;;;;;;;;;21.81;40.01;101012.75;5116502;28;1976;-64
2021/04/23 11:37:27;;;;;;;;;;;;;;;22.13;39.31;101025.78;5098825;28;1252;-63
2021/04/23 11:39:54;;;;;;;;;;;;;;;22.13;39.19;101014.69;5097832;28;818;-63
2021/04/23 11:42:20;;;;;;;;;;;;;;;22.03;39.38;101015.72;5116457;28;847;-55
2021/04/23 11:44:47;;;;;;;;;;;;;;;21.94;39.80;101017.53;5116360;28;842;-62
2021/04/23 11:47:16;;;;;;;;;;;;;;;21.32;41.17;101017.69;5101136;28;1740;-64
2021/04/23 11:49:41;;;;;;;;;;;;;;;21.74;40.19;101017.88;5077680;28;795;-60
2021/04/23 11:52:07;;;;;;;;;;;;;;;22.07;39.38;101018.66;5096222;28;763;-60
2021/04/23 11:54:38;;;;;;;;;;;;;;;22.02;39.77;101013.22;5096144;28;803;-61
2021/04/23 11:57:05;;;;;;;;;;;;;;;22.02;39.68;101008.53;5096591;28;835;-60
2021/04/23 11:59:31;;;;;;;;;;;;;;;21.73;40.21;101014.28;5096176;28;830;-61
2021/04/23 12:01:56;;;;;;;;;;;;;;;21.20;41.41;101020.91;5095668;28;1009;-61
2021/04/23 12:04:40;;;;;;;;;;;;;;;21.68;40.62;101022.69;5078018;28;870;-61
2021/04/23 12:07:06;;;;;;;;;;;;;;;22.16;39.16;101016.84;5096424;28;811;-60
2021/04/23 12:09:31;;;;;;;;;;;;;;;21.93;39.88;101021.41;5078066;28;1165;-62
2021/04/23 12:12:13;;;;;;;;;;;;;;;22.03;39.57;101025.94;5089447;28;1185;-62
2021/04/23 12:14:41;;;;;;;;;;;;;;;21.56;40.60;101020.41;5075579;28;1978;-61
2021/04/23 12:17:06;;;;;;;;;;;;;;;21.63;40.74;101028.28;5091340;28;1002;-61
2021/04/23 12:19:32;;;;;;;;;;;;;;;22.04;39.68;101024.81;5095485;28;915;-61
2021/04/23 12:21:57;;;;;;;;;;;;;;;21.83;40.07;101035.44;5095467;28;948;-62
2021/04/23 12:24:23;;;;;;;;;;;;;;;21.78;40.17;101035.53;5094183;28;890;-61
2021/04/23 12:26:48;;;;;;;;;;;;;;;21.96;39.84;101031.06;5095292;28;779;-61
2021/04/23 12:29:14;;;;;;;;;;;;;;;21.31;41.27;101027.13;5095677;28;795;-61
2021/04/23 12:31:39;;;;;;;;;;;;;;;21.63;40.56;101031.88;5081443;28;966;-61
2021/04/23 12:34:05;;;;;;;;;;;;;;;21.96;40.01;101026.34;5116460;28;810;-61
2021/04/23 12:36:32;;;;;;;;;;;;;;;22.12;39.51;101029.66;5119862;28;1988;-61
2021/04/23 12:39:22;;;;;;;;;;;;;;;21.91;40.15;101039.44;5119661;28;779;-61
2021/04/23 12:41:58;;;;;;;;;;;;;;;21.69;40.42;101033.44;5108123;28;1244;-61
2021/04/23 12:44:27;;;;;;;;;;;;;;;21.26;41.27;101038.25;5119699;28;831;-61
2021/04/23 12:46:54;;;;;;;;;;;;;;;21.69;40.57;101038.97;5106903;28;1710;-61
2021/04/23 12:49:30;;;;;;;;;;;;;;;22.06;39.46;101036.41;5081446;28;1422;-60
2021/04/23 12:52:02;;;;;;;;;;;;;;;22.07;39.74;101026.16;5098877;28;790;-60